Flight Track Log - Related Links

Times and Time Zones

All times are in EDT time to prevent confusion due to time zone crossing. See the SWA471 flight status page for this flight to view local times or setup timezone preferences in your user account.

Time Position Orientation Groundspeed Altitude Reporting Facility
EDT Latitude Longitude Course Direction KTS MPH feet Rate Location/Type
Fri 09:54:59 PM 39.3333 -94.7167 352° North 155 178 2,200  Level Kansas City TRACON
Fri 09:56:05 PM 39.3761 -94.7247 352° North 190 219 5,100 3,488 Climbing Kansas City Center
Fri 09:57:08 PM 39.3872 -94.8003 281° West 236 272 9,700 3,629 Climbing Kansas City Center
Fri 09:58:09 PM 39.3156 -94.8297 198° South 290 334 12,600 2,390 Climbing Kansas City Center
Fri 09:59:11 PM 39.2181 -94.8503 189° South 362 417 14,600 2,488 Climbing Kansas City Center
Fri 10:00:12 PM 39.0936 -94.8867 193° South 411 473 17,700 2,975 Climbing Kansas City Center
Fri 10:01:12 PM 38.9781 -94.9144 191° South 433 498 20,600 2,579 Climbing Kansas City Center
Fri 10:02:13 PM 38.8639 -94.9467 192° South 436 502 22,900 2,293 Climbing Kansas City Center
Fri 10:03:15 PM 38.7225 -94.9828 191° South 459 528 25,300 2,281 Climbing Kansas City Center
Fri 10:04:14 PM 38.5986 -95.0164 192° South 467 537 27,500 2,439 Climbing Kansas City Center
Fri 10:05:18 PM 38.4800 -95.0475 192° South 459 528 30,300 2,585 Climbing Kansas City Center
Fri 10:06:17 PM 38.3450 -95.0817 191° South 442 509 32,800 1,835 Climbing Kansas City Center
Fri 10:07:19 PM 38.2244 -95.0894 183° South 448 516 34,000 683 Climbing Kansas City Center
Fri 10:08:20 PM 38.0769 -95.0911 181° South 467 537 34,200 968 Climbing Kansas City Center
Fri 10:09:23 PM 37.9569 -95.0986 183° South 452 520 36,000 871 Climbing Kansas City Center
Fri 10:10:24 PM 37.8244 -95.1047 182° South 442 509 36,000  Level Kansas City Center
Fri 10:11:23 PM 37.6997 -95.1106 182° South 446 513 36,000  Level Kansas City Center
Fri 10:12:26 PM 37.5750 -95.1153 182° South 446 513 36,000  Level Kansas City Center
Fri 10:13:28 PM 37.4500 -95.1228 183° South 446 513 36,000  Level Kansas City Center
Fri 10:14:29 PM 37.3258 -95.1261 181° South 446 513 36,000  Level Kansas City Center
Fri 10:15:29 PM 37.2025 -95.1339 183° South 443 510 36,000  Level Kansas City Center
Fri 10:16:32 PM 37.0789 -95.1381 182° South 443 510 36,000  Level Kansas City Center
Fri 10:17:32 PM 36.9561 -95.1436 182° South 441 507 36,000  Level Kansas City Center
Fri 10:18:32 PM 36.8342 -95.1481 182° South 437 503 36,000  Level Kansas City Center
Fri 10:19:36 PM 36.7114 -95.1539 182° South 438 504 36,000  Level Kansas City Center
Fri 10:20:36 PM 36.5722 -95.1592 182° South 433 498 36,000  Level Kansas City Center
Fri 10:21:37 PM 36.4525 -95.1636 182° South 431 496 36,000  Level Kansas City Center
Fri 10:22:39 PM 36.3328 -95.1700 182° South 430 495 36,000  Level Kansas City Center
Fri 10:23:38 PM 36.2128 -95.1747 182° South 430 495 36,000  Level Kansas City Center
Fri 10:24:40 PM 36.0942 -95.1800 182° South 428 493 36,000  Level Kansas City Center
Fri 10:25:41 PM 35.9847 -95.1853 182° South 428 493 36,000  Level Kansas City Center
Fri 10:26:42 PM 35.8411 -95.1906 182° South 428 493 36,000 -97 Level Kansas City Center
Fri 10:27:45 PM 35.7233 -95.1975 183° South 425 489 35,800 -639 Descending Kansas City Center
Fri 10:28:44 PM 35.6158 -95.2422 199° South 408 470 34,700 -933 Descending Kansas City Center
Fri 10:29:15 PM 35.5692 -95.2625 199° South 412 474 34,400 -791 Descending Fort Worth Center
Fri 10:30:15 PM 35.4594 -95.3111 200° South 407 468 33,500 -900 Descending Fort Worth Center
Fri 10:31:15 PM 35.3478 -95.3572 199° South 423 487 32,600 -900 Descending Fort Worth Center
Fri 10:32:15 PM 35.2317 -95.4108 201° Southwest 430 495 31,700 -950 Descending Fort Worth Center
Fri 10:33:15 PM 35.1222 -95.4642 202° Southwest 435 501 30,700 -1,000 Descending Fort Worth Center
Fri 10:34:15 PM 35.0061 -95.5225 202° Southwest 435 501 29,700 -1,000 Descending Fort Worth Center
Fri 10:35:15 PM 34.8778 -95.5811 201° Southwest 447 514 28,700 -950 Descending Fort Worth Center
Fri 10:36:15 PM 34.7617 -95.6367 201° Southwest 452 520 27,800 -950 Descending Fort Worth Center
Fri 10:37:15 PM 34.6456 -95.6922 201° Southwest 452 520 26,800 -1,000 Descending Fort Worth Center
Fri 10:38:15 PM 34.5317 -95.7447 201° Southwest 452 520 25,800 -1,000 Descending Fort Worth Center
Fri 10:39:15 PM 34.4133 -95.8000 201° Southwest 452 520 24,800 -950 Descending Fort Worth Center
Fri 10:40:15 PM 34.2972 -95.8550 201° Southwest 452 520 23,900 -950 Descending Fort Worth Center
Fri 10:41:15 PM 34.1831 -95.9097 202° Southwest 452 520 22,900 -1,000 Descending Fort Worth Center
Fri 10:42:15 PM 34.0836 -95.9539 200° South 441 507 21,900 -1,000 Descending Fort Worth Center
Fri 10:43:15 PM 33.9756 -96.0058 202° Southwest 422 486 20,900 -1,400 Descending Fort Worth Center
Fri 10:44:15 PM 33.8697 -96.0578 202° Southwest 422 486 19,100 -2,450 Descending Fort Worth Center
Fri 10:45:15 PM 33.7681 -96.1042 201° Southwest 400 460 16,000 -3,300 Descending Fort Worth Center
Fri 10:46:15 PM 33.6600 -96.1533 201° Southwest 389 448 12,500 -3,000 Descending Fort Worth Center
Fri 10:47:15 PM 33.5728 -96.1919 200° South 381 438 10,000 -1,250 Descending Fort Worth Center
Fri 10:48:15 PM 33.4731 -96.2381 201° Southwest 366 421 10,000 -50 Level Fort Worth Center
Fri 10:49:15 PM 33.3897 -96.2789 202° Southwest 366 421 9,900 -500 Descending Fort Worth Center
Fri 10:50:15 PM 33.3025 -96.3175 200° South 326 375 9,000 -450 Descending Fort Worth Center
Fri 10:51:15 PM 33.2425 -96.3678 215° Southwest 303 349 9,000 -700 Level Fort Worth Center
Fri 10:52:15 PM 33.1739 -96.4331 219° Southwest 293 337 7,600 -1,500 Descending Fort Worth Center
Fri 10:53:15 PM 33.1053 -96.4661 202° Southwest 287 330 6,000 -1,600 Descending Fort Worth Center
Fri 10:54:15 PM 33.0264 -96.5017 201° Southwest 292 336 4,400 -1,000 Descending Fort Worth Center
Fri 10:55:15 PM 32.9556 -96.5344 201° Southwest 287 330 4,000 -200 Descending Fort Worth Center
Fri 10:56:15 PM 32.8911 -96.5772 209° Southwest 275 316 4,000 -500 Level Fort Worth Center
Fri 10:57:15 PM 32.8497 -96.6419 233° Southwest 259 298 3,000 -756 Descending Fort Worth Center
Fri 10:58:14 PM 32.8167 -96.7000 236° Southwest 227 261 2,500 -454 Descending Dallas / Fort Worth TRACON
Fri 10:59:14 PM 32.7833 -96.7500 232° Southwest 196 226 2,100 -450 Descending Dallas / Fort Worth TRACON
Fri 11:00:14 PM 32.8000 -96.8000 292° West 131 151 1,600 -650 Descending Dallas / Fort Worth TRACON
Fri 11:01:14 PM 32.8333 -96.8333 320° Northwest 135 155 800 -579 Descending Dallas / Fort Worth TRACON
Fri 11:02:08 PM 32.8667 -96.8500 337° Northwest 145 167 500 -333 Descending Dallas / Fort Worth TRACON
Fri 11:04:00 PM 32.8471 -96.8518 265° West  Level Estimated
Fri 11:11:00 PM 32.8471 -96.8518 265° West  Level Estimated
Fri 11:12:00 PM 32.8471 -96.8518 265° West  Level Estimated
Fri 11:13:00 PM 32.8471 -96.8518 265° West  Level Estimated
Fri 11:14:00 PM 32.8471 -96.8518 265° West  Level Estimated

Login

Don't have an account? Register now (free) for customized features, flight alerts, and more!